createdAt,value
2018-02-16T00:02:21.233Z,44.47
2018-02-16T00:04:48.720Z,42.17
2018-02-16T00:07:16.209Z,43.53
2018-02-16T00:09:43.695Z,49.20
2018-02-16T00:12:11.137Z,47.20
2018-02-16T00:14:38.607Z,47.10
2018-02-16T00:17:06.052Z,49.10
2018-02-16T00:19:33.503Z,42.83
2018-02-16T00:22:00.912Z,43.47
2018-02-16T00:24:28.374Z,41.73
2018-02-16T00:26:55.788Z,45.23
2018-02-16T00:29:23.273Z,46.57
2018-02-16T00:31:50.695Z,46.27
2018-02-16T00:34:18.154Z,47.30
2018-02-16T00:36:45.610Z,43.37
2018-02-16T00:39:13.041Z,46.80
2018-02-16T00:41:40.489Z,46.70
2018-02-16T00:44:07.957Z,53.73
2018-02-16T00:46:35.438Z,41.60
2018-02-16T00:49:02.883Z,39.43
2018-02-16T00:51:30.307Z,56.03
2018-02-16T00:53:57.719Z,49.40
2018-02-16T00:56:25.153Z,48.43
2018-02-16T00:58:52.582Z,43.57
2018-02-16T01:01:20.032Z,44.40
2018-02-16T01:03:47.474Z,46.87
2018-02-16T01:06:14.913Z,55.00
2018-02-16T01:08:42.340Z,47.87
2018-02-16T01:11:09.776Z,45.23
2018-02-16T01:13:37.226Z,46.33
2018-02-16T01:16:04.652Z,50.50
2018-02-16T01:18:32.129Z,48.33
2018-02-16T01:23:41.398Z,53.30
2018-02-16T01:26:08.829Z,52.63
2018-02-16T01:28:36.253Z,48.07
2018-02-16T01:31:03.898Z,46.50
2018-02-16T01:33:31.342Z,44.57
2018-02-16T01:35:58.763Z,44.23
2018-02-16T01:38:26.282Z,48.07
2018-02-16T01:40:53.709Z,46.20
2018-02-16T01:43:21.182Z,45.23
2018-02-16T01:45:48.584Z,50.10
2018-02-16T01:48:16.043Z,54.87
2018-02-16T01:50:43.458Z,51.73
2018-02-16T01:53:10.866Z,45.17
2018-02-16T01:55:38.319Z,46.90
2018-02-16T01:58:05.806Z,44.77
2018-02-16T02:00:33.183Z,46.30
2018-02-16T02:03:00.620Z,48.07
2018-02-16T02:05:28.066Z,48.23
2018-02-16T02:07:55.490Z,43.00
2018-02-16T02:10:22.954Z,45.23
2018-02-16T02:12:50.367Z,42.07
2018-02-16T02:15:17.809Z,49.70
2018-02-16T02:17:45.327Z,50.47
2018-02-16T02:20:12.835Z,48.37
2018-02-16T02:22:40.233Z,46.73
2018-02-16T02:25:07.697Z,48.67
2018-02-16T02:27:35.112Z,45.43
2018-02-16T02:30:02.616Z,56.13
2018-02-16T02:32:30.049Z,42.53
2018-02-16T02:34:57.486Z,44.27
2018-02-16T02:37:24.934Z,45.37
2018-02-16T02:39:52.371Z,48.33
2018-02-16T02:42:19.826Z,47.77
2018-02-16T02:44:47.272Z,47.20
2018-02-16T02:47:14.703Z,51.10
2018-02-16T02:49:42.112Z,47.63
2018-02-16T02:52:09.562Z,49.73
2018-02-16T02:54:36.974Z,46.77
2018-02-16T02:57:04.441Z,54.13
2018-02-16T02:59:31.850Z,45.83
2018-02-16T03:01:59.290Z,43.27
2018-02-16T03:04:26.725Z,47.27
2018-02-16T03:06:54.136Z,45.07
2018-02-16T03:09:21.571Z,44.17
2018-02-16T03:11:48.992Z,45.17
2018-02-16T03:14:16.436Z,38.57
2018-02-16T03:16:43.926Z,47.00
2018-02-16T03:19:11.373Z,47.80
2018-02-16T03:21:39.127Z,53.40
2018-02-16T03:24:06.579Z,48.23
2018-02-16T03:26:34.044Z,49.33
2018-02-16T03:29:01.517Z,52.10
2018-02-16T03:31:28.964Z,54.53
2018-02-16T03:33:56.416Z,60.30
2018-02-16T03:36:23.852Z,48.50
2018-02-16T03:38:51.322Z,70.20
2018-02-16T03:41:18.724Z,68.23
2018-02-16T03:43:46.157Z,56.97
2018-02-16T03:46:13.597Z,53.10
2018-02-16T03:48:41.042Z,59.53
2018-02-16T03:51:08.472Z,57.93
2018-02-16T03:53:35.905Z,51.57
2018-02-16T03:56:03.325Z,52.43
2018-02-16T03:58:30.777Z,54.00
2018-02-16T04:00:58.187Z,56.53
2018-02-16T04:03:25.620Z,49.63
2018-02-16T04:05:53.056Z,51.57
2018-02-16T04:08:20.470Z,57.63
2018-02-16T04:10:47.921Z,52.00
2018-02-16T04:13:15.344Z,48.80
2018-02-16T04:15:42.794Z,51.20
2018-02-16T04:18:10.232Z,46.53
2018-02-16T04:20:37.803Z,44.90
2018-02-16T04:23:05.244Z,57.20
2018-02-16T04:25:32.810Z,55.07
2018-02-16T04:28:00.357Z,69.87
2018-02-16T04:30:27.808Z,57.60
2018-02-16T04:32:55.267Z,152.83
2018-02-16T04:35:22.676Z,94.43
2018-02-16T04:37:50.124Z,172.53
2018-02-16T04:40:17.562Z,63.27
2018-02-16T04:42:45.017Z,327.83
2018-02-16T04:45:12.448Z,506.53
2018-02-16T04:47:39.931Z,207.73
2018-02-16T04:50:07.362Z,549.70
2018-02-16T04:52:34.837Z,356.57
2018-02-16T04:55:02.276Z,419.23
2018-02-16T04:57:29.737Z,144.00
2018-02-16T04:59:57.146Z,401.33
2018-02-16T05:02:24.583Z,443.27
2018-02-16T05:04:51.997Z,372.00
2018-02-16T05:07:19.472Z,581.03
2018-02-16T05:09:46.930Z,380.47
2018-02-16T05:12:14.386Z,259.47
2018-02-16T05:14:41.839Z,181.37
2018-02-16T05:17:09.258Z,380.70
2018-02-16T05:19:36.704Z,211.80
2018-02-16T05:22:04.173Z,529.70
2018-02-16T05:24:31.599Z,799.97
2018-02-16T05:26:59.061Z,464.27
2018-02-16T05:29:26.506Z,519.40
2018-02-16T05:31:54.009Z,483.87
2018-02-16T05:34:21.428Z,654.87
2018-02-16T05:36:48.909Z,529.23
2018-02-16T05:39:16.344Z,464.97
2018-02-16T05:41:43.799Z,558.33
2018-02-16T05:44:11.243Z,581.20
2018-02-16T05:46:38.685Z,571.23
2018-02-16T05:49:06.120Z,285.20
2018-02-16T05:51:33.561Z,305.17
2018-02-16T05:54:00.998Z,577.37
2018-02-16T05:56:28.490Z,598.20
2018-02-16T05:58:55.921Z,648.13
2018-02-16T06:01:23.400Z,468.37
2018-02-16T06:03:50.849Z,693.37
2018-02-16T06:06:18.290Z,536.67
2018-02-16T06:08:45.721Z,452.37
2018-02-16T06:11:13.161Z,652.77
2018-02-16T06:13:40.657Z,618.03
2018-02-16T06:16:08.120Z,660.70
2018-02-16T06:18:35.597Z,161.10
2018-02-16T06:21:03.310Z,319.73
2018-02-16T06:23:30.741Z,290.83
2018-02-16T06:25:58.203Z,306.90
2018-02-16T06:28:25.651Z,231.50
2018-02-16T06:30:53.073Z,294.07
2018-02-16T06:33:20.605Z,215.93
2018-02-16T06:35:48.073Z,554.57
2018-02-16T06:38:15.544Z,600.23
2018-02-16T06:40:43.176Z,445.53
2018-02-16T06:43:10.721Z,581.87
2018-02-16T06:45:38.844Z,424.40
2018-02-16T06:48:06.301Z,342.67
2018-02-16T06:50:33.779Z,441.37
2018-02-16T06:53:01.233Z,367.93
2018-02-16T06:55:28.683Z,345.47
2018-02-16T06:57:56.444Z,461.90
2018-02-16T07:00:23.966Z,770.53
2018-02-16T07:02:51.428Z,590.90
2018-02-16T07:05:18.915Z,489.07
2018-02-16T07:07:46.386Z,561.63
2018-02-16T07:10:13.873Z,685.23
2018-02-16T07:12:41.342Z,341.17
2018-02-16T07:15:08.802Z,497.13
2018-02-16T07:17:36.215Z,518.47
2018-02-16T07:20:03.667Z,381.70
2018-02-16T07:22:31.109Z,387.83
2018-02-16T07:24:58.642Z,772.83
2018-02-16T07:27:26.094Z,550.40
2018-02-16T07:29:53.551Z,360.07
2018-02-16T07:32:21.052Z,629.67
2018-02-16T07:34:48.462Z,407.23
2018-02-16T07:37:15.888Z,526.80
2018-02-16T07:39:43.739Z,418.33
2018-02-16T07:42:11.187Z,452.47
2018-02-16T07:44:38.642Z,463.90
2018-02-16T07:47:06.116Z,266.33
2018-02-16T07:49:33.546Z,408.83
2018-02-16T07:52:01.008Z,316.27
2018-02-16T07:54:28.434Z,506.53
2018-02-16T07:56:55.881Z,399.23
2018-02-16T07:59:23.433Z,273.03
2018-02-16T08:01:50.867Z,461.53
2018-02-16T08:04:18.306Z,255.50
2018-02-16T08:06:45.717Z,233.97
2018-02-16T08:09:13.172Z,247.47
2018-02-16T08:11:40.774Z,288.50
2018-02-16T08:14:08.288Z,360.00
2018-02-16T08:16:35.738Z,244.60
2018-02-16T08:19:03.478Z,187.13
2018-02-16T08:21:30.943Z,168.67
2018-02-16T08:23:58.403Z,111.97
2018-02-16T08:26:25.830Z,119.10
2018-02-16T08:28:53.288Z,214.63
2018-02-16T08:31:21.067Z,172.37
2018-02-16T08:33:48.589Z,204.60
2018-02-16T08:36:16.022Z,106.33
2018-02-16T08:38:43.473Z,146.60
2018-02-16T08:41:10.923Z,176.50
2018-02-16T08:43:38.370Z,178.43
2018-02-16T08:46:05.850Z,148.20
2018-02-16T08:48:33.393Z,129.00
2018-02-16T08:51:00.934Z,303.47
2018-02-16T08:53:28.415Z,146.17
2018-02-16T08:55:55.872Z,199.50
2018-02-16T08:58:23.322Z,206.33
2018-02-16T09:00:50.769Z,259.73
2018-02-16T09:03:18.208Z,119.40
2018-02-16T09:05:45.685Z,229.97
2018-02-16T09:08:13.127Z,128.40
2018-02-16T09:10:40.588Z,137.60
2018-02-16T09:13:08.010Z,118.03
2018-02-16T09:15:35.484Z,148.43
2018-02-16T09:18:02.930Z,135.40
2018-02-16T09:20:30.450Z,118.23
2018-02-16T09:22:57.920Z,177.13
2018-02-16T09:25:25.346Z,107.83
2018-02-16T09:27:52.806Z,120.33
2018-02-16T09:30:20.343Z,147.60
2018-02-16T09:32:47.869Z,155.73
2018-02-16T09:35:15.331Z,127.73
2018-02-16T09:37:42.978Z,134.47
2018-02-16T09:40:10.722Z,208.30
2018-02-16T09:42:38.204Z,126.50
2018-02-16T09:45:05.649Z,184.03
2018-02-16T09:47:33.129Z,126.83
2018-02-16T09:50:00.663Z,96.97
2018-02-16T09:52:28.118Z,97.87
2018-02-16T09:55:00.576Z,136.97
2018-02-16T09:57:28.077Z,105.57
2018-02-16T09:59:55.528Z,113.77
2018-02-16T10:02:23.027Z,94.80
2018-02-16T10:04:50.553Z,99.00
2018-02-16T10:07:17.892Z,86.27
2018-02-16T10:09:45.382Z,82.60
2018-02-16T10:12:12.813Z,85.17
2018-02-16T10:14:40.454Z,70.20
2018-02-16T10:17:07.872Z,82.97
2018-02-16T10:19:35.285Z,93.83
2018-02-16T10:22:02.827Z,80.93
2018-02-16T10:24:30.280Z,84.63
2018-02-16T10:26:57.751Z,80.93
2018-02-16T10:29:25.237Z,77.83
2018-02-16T10:31:52.760Z,80.30
2018-02-16T10:34:21.042Z,76.63
2018-02-16T10:36:48.591Z,76.93
2018-02-16T10:39:16.097Z,93.27
2018-02-16T10:41:43.918Z,71.00
2018-02-16T10:44:13.144Z,69.37
2018-02-16T10:46:40.595Z,79.57
2018-02-16T10:49:08.027Z,69.63
2018-02-16T10:51:35.522Z,75.57
2018-02-16T10:54:02.956Z,71.77
2018-02-16T10:56:30.464Z,76.20
2018-02-16T10:58:57.974Z,82.10
2018-02-16T11:01:25.426Z,77.43
2018-02-16T11:03:58.840Z,71.23
2018-02-16T11:06:31.993Z,73.97
2018-02-16T11:09:05.017Z,73.27
2018-02-16T11:11:32.571Z,78.90
2018-02-16T11:14:00.027Z,82.87
2018-02-16T11:16:27.499Z,65.50
2018-02-16T11:18:55.063Z,61.60
2018-02-16T11:21:22.471Z,60.80
2018-02-16T11:23:49.981Z,78.47
2018-02-16T11:26:17.380Z,61.10
2018-02-16T11:28:44.901Z,56.33
2018-02-16T11:31:12.371Z,66.77
2018-02-16T11:33:39.833Z,57.13
2018-02-16T11:36:07.259Z,74.93
2018-02-16T11:38:34.759Z,59.50
2018-02-16T11:41:02.167Z,62.87
2018-02-16T11:43:29.623Z,63.03
2018-02-16T11:45:57.055Z,71.00
2018-02-16T11:48:24.509Z,66.33
2018-02-16T11:50:51.944Z,53.43
2018-02-16T11:53:19.505Z,64.50
2018-02-16T11:55:49.355Z,62.07
2018-02-16T11:58:16.800Z,64.43
2018-02-16T12:00:44.261Z,60.43
2018-02-16T12:03:13.129Z,66.13
2018-02-16T12:05:40.676Z,62.77
2018-02-16T12:08:08.197Z,62.47
2018-02-16T12:10:35.623Z,68.70
2018-02-16T12:13:03.108Z,55.03
2018-02-16T12:15:30.591Z,64.27
2018-02-16T12:17:58.026Z,63.67
2018-02-16T12:20:25.500Z,59.67
2018-02-16T12:22:52.918Z,62.00
2018-02-16T12:25:20.540Z,65.93
2018-02-16T12:27:47.996Z,54.53
2018-02-16T12:30:15.468Z,58.50
2018-02-16T12:32:42.887Z,56.27
2018-02-16T12:35:10.312Z,71.73
2018-02-16T12:37:37.852Z,57.77
2018-02-16T12:40:05.297Z,45.67
2018-02-16T12:42:32.733Z,49.13
2018-02-16T12:45:00.251Z,50.03
2018-02-16T12:47:27.707Z,49.27
2018-02-16T12:49:55.168Z,52.70
2018-02-16T12:52:22.605Z,46.20
2018-02-16T12:54:50.033Z,42.73
2018-02-16T12:57:17.599Z,41.00
2018-02-16T12:59:45.011Z,43.43
2018-02-16T13:02:12.579Z,49.00
2018-02-16T13:04:40.024Z,51.67
2018-02-16T13:07:07.606Z,45.60
2018-02-16T13:09:35.063Z,53.10
2018-02-16T13:12:02.477Z,35.20
2018-02-16T13:14:29.961Z,45.03
2018-02-16T13:16:57.444Z,40.83
2018-02-16T13:19:24.873Z,42.83
2018-02-16T13:21:52.305Z,39.23
2018-02-16T13:24:19.786Z,43.83
2018-02-16T13:26:47.198Z,46.17
2018-02-16T13:29:14.691Z,54.60
2018-02-16T13:31:42.121Z,45.73
2018-02-16T13:34:09.661Z,55.10
2018-02-16T13:36:37.105Z,62.20
2018-02-16T13:39:04.558Z,59.83
2018-02-16T13:41:32.020Z,40.83
2018-02-16T13:43:59.477Z,43.20
2018-02-16T13:46:26.919Z,49.30
2018-02-16T13:48:54.350Z,38.73
2018-02-16T13:51:21.824Z,37.33
2018-02-16T13:53:49.484Z,54.30
2018-02-16T13:56:16.896Z,42.20
2018-02-16T13:58:44.370Z,44.20
2018-02-16T14:01:11.799Z,49.00
2018-02-16T14:03:39.224Z,41.10
2018-02-16T14:06:06.672Z,61.13
2018-02-16T14:08:34.100Z,55.40
2018-02-16T14:11:01.561Z,48.73
2018-02-16T14:13:29.055Z,63.43
2018-02-16T14:15:56.491Z,72.63
2018-02-16T14:18:24.028Z,77.07
2018-02-16T14:20:51.612Z,84.60
2018-02-16T14:23:19.077Z,70.80
2018-02-16T14:25:46.765Z,72.90
2018-02-16T14:28:14.280Z,80.20
2018-02-16T14:30:41.876Z,80.53
2018-02-16T14:33:09.496Z,91.33
2018-02-16T14:35:36.914Z,78.43
2018-02-16T14:38:04.635Z,83.63
2018-02-16T14:40:36.256Z,92.07
2018-02-16T14:43:39.535Z,82.23
2018-02-16T14:46:06.976Z,92.97
2018-02-16T14:48:34.633Z,97.70
2018-02-16T14:51:02.051Z,110.70
2018-02-16T14:53:29.528Z,84.87
2018-02-16T14:55:57.026Z,84.07
2018-02-16T14:58:24.460Z,92.50
2018-02-16T15:00:51.902Z,84.40
2018-02-16T15:03:19.421Z,80.37
2018-02-16T15:05:46.906Z,79.23
2018-02-16T15:08:14.347Z,73.17
2018-02-16T15:10:41.782Z,77.43
2018-02-16T15:13:09.212Z,83.93
2018-02-16T15:15:36.681Z,70.50
2018-02-16T15:18:04.114Z,82.33
2018-02-16T15:20:31.589Z,73.90
2018-02-16T15:22:59.028Z,80.07
2018-02-16T15:25:26.487Z,88.30
2018-02-16T15:27:53.962Z,64.73
2018-02-16T15:30:21.639Z,62.50
2018-02-16T15:32:49.130Z,72.10
2018-02-16T15:35:16.594Z,75.50
2018-02-16T15:37:44.168Z,71.57
2018-02-16T15:40:11.636Z,64.43
2018-02-16T15:42:39.076Z,72.50
2018-02-16T15:45:06.530Z,73.37
2018-02-16T15:47:33.951Z,65.27
2018-02-16T15:50:01.652Z,73.20
2018-02-16T15:52:30.183Z,62.60
2018-02-16T15:54:57.604Z,62.27
2018-02-16T15:57:25.104Z,61.07
2018-02-16T15:59:52.763Z,71.87
2018-02-16T16:02:20.201Z,71.23
2018-02-16T16:04:47.625Z,68.73
2018-02-16T16:07:15.156Z,73.80
2018-02-16T16:09:42.617Z,72.37
2018-02-16T16:12:10.051Z,73.20
2018-02-16T16:14:37.509Z,68.67
2018-02-16T16:17:04.956Z,71.63
2018-02-16T16:19:32.380Z,59.50
2018-02-16T16:21:59.902Z,73.03
2018-02-16T16:24:27.319Z,65.10
2018-02-16T16:26:54.841Z,61.07
2018-02-16T16:29:22.262Z,64.13
2018-02-16T16:31:49.723Z,63.63
2018-02-16T16:34:17.896Z,82.17
2018-02-16T16:36:45.333Z,73.17
2018-02-16T16:39:12.822Z,72.43
2018-02-16T16:41:40.280Z,74.77
2018-02-16T16:44:07.786Z,61.73
2018-02-16T16:46:35.264Z,73.70
2018-02-16T16:49:02.855Z,81.13
2018-02-16T16:51:30.260Z,74.23
2018-02-16T16:53:57.717Z,64.57
2018-02-16T16:56:25.219Z,66.73
2018-02-16T16:58:52.685Z,60.57
2018-02-16T17:01:20.103Z,59.90
2018-02-16T17:03:47.692Z,65.80
2018-02-16T17:06:15.126Z,70.10
2018-02-16T17:08:42.684Z,64.73
2018-02-16T17:11:10.217Z,63.20
2018-02-16T17:13:37.645Z,67.70
2018-02-16T17:16:06.066Z,69.27
2018-02-16T17:18:33.521Z,84.70
2018-02-16T17:21:00.983Z,92.20
2018-02-16T17:23:28.451Z,72.60
2018-02-16T17:25:56.054Z,72.93
2018-02-16T17:28:23.503Z,75.90
2018-02-16T17:30:50.973Z,67.73
2018-02-16T17:33:18.672Z,67.87
2018-02-16T17:35:46.888Z,73.33
2018-02-16T17:38:14.372Z,69.90
2018-02-16T17:40:41.837Z,68.23
2018-02-16T17:43:09.337Z,55.63
2018-02-16T17:45:36.784Z,63.40
2018-02-16T17:48:04.399Z,58.13
2018-02-16T17:50:33.106Z,65.13
2018-02-16T17:53:00.694Z,61.30
2018-02-16T17:55:28.544Z,66.87
2018-02-16T17:57:56.035Z,61.57
2018-02-16T18:00:24.120Z,53.37
2018-02-16T18:02:51.649Z,55.47
2018-02-16T18:05:19.954Z,65.80
2018-02-16T18:07:47.656Z,60.90
2018-02-16T18:10:15.306Z,62.73
2018-02-16T18:12:42.755Z,54.17
2018-02-16T18:15:10.285Z,64.30
2018-02-16T18:17:37.834Z,53.10
2018-02-16T18:20:05.392Z,56.20
2018-02-16T18:22:32.848Z,65.23
2018-02-16T18:25:00.341Z,52.33
2018-02-16T18:27:28.354Z,60.37
2018-02-16T18:29:56.307Z,62.47
2018-02-16T18:32:23.758Z,57.10
2018-02-16T18:34:51.321Z,51.10
2018-02-16T18:37:18.855Z,52.80
2018-02-16T18:39:46.461Z,61.40
2018-02-16T18:42:14.568Z,54.60
2018-02-16T18:44:50.259Z,54.97
2018-02-16T18:47:17.688Z,70.00
2018-02-16T18:49:45.163Z,59.13
2018-02-16T18:52:12.620Z,60.63
2018-02-16T18:54:40.155Z,60.20
2018-02-16T18:57:07.638Z,56.70
2018-02-16T18:59:35.165Z,53.37
2018-02-16T19:02:02.597Z,62.13
2018-02-16T19:04:30.063Z,61.63
2018-02-16T19:06:57.516Z,68.30
2018-02-16T19:09:25.275Z,57.97
2018-02-16T19:11:52.724Z,71.20
2018-02-16T19:14:20.173Z,56.60
2018-02-16T19:16:51.865Z,51.00
2018-02-16T19:19:19.383Z,58.83
2018-02-16T19:21:46.840Z,49.67
2018-02-16T19:24:14.302Z,55.73
2018-02-16T19:26:41.732Z,54.73
2018-02-16T19:29:09.232Z,52.83
2018-02-16T19:31:36.713Z,58.40
2018-02-16T19:34:04.172Z,56.83
2018-02-16T19:36:31.838Z,56.77
2018-02-16T19:38:59.335Z,40.70
2018-02-16T19:41:27.060Z,56.57
2018-02-16T19:43:54.557Z,53.17
2018-02-16T19:46:22.003Z,56.80
2018-02-16T19:48:49.528Z,54.73
2018-02-16T19:51:16.988Z,57.80
2018-02-16T19:53:44.418Z,60.97
2018-02-16T19:56:11.886Z,53.23
2018-02-16T19:58:39.317Z,47.70
2018-02-16T20:01:06.769Z,57.70
2018-02-16T20:03:34.225Z,44.60
2018-02-16T20:06:01.700Z,49.00
2018-02-16T20:08:29.198Z,60.60
2018-02-16T20:10:56.681Z,57.33
2018-02-16T20:13:24.166Z,59.93
2018-02-16T20:15:51.636Z,40.37
2018-02-16T20:18:19.094Z,51.43
2018-02-16T20:20:46.539Z,43.23
2018-02-16T20:23:14.023Z,52.67
2018-02-16T20:25:41.511Z,56.50
2018-02-16T20:28:08.968Z,54.17
2018-02-16T20:30:36.449Z,41.50
2018-02-16T20:33:03.863Z,51.57
2018-02-16T20:35:31.413Z,52.50
2018-02-16T20:37:58.900Z,47.63
2018-02-16T20:40:26.359Z,53.03
2018-02-16T20:42:54.384Z,48.53
2018-02-16T20:45:21.887Z,58.13
2018-02-16T20:47:49.320Z,46.33
2018-02-16T20:50:17.017Z,50.77
2018-02-16T20:52:44.483Z,62.43
2018-02-16T20:55:11.957Z,46.90
2018-02-16T20:57:39.393Z,59.13
2018-02-16T21:00:06.884Z,54.40
2018-02-16T21:02:34.296Z,43.50
2018-02-16T21:05:01.846Z,48.47
2018-02-16T21:07:29.273Z,64.43
2018-02-16T21:09:56.720Z,58.27
2018-02-16T21:12:24.534Z,55.43
2018-02-16T21:14:52.086Z,58.93
2018-02-16T21:17:19.525Z,51.30
2018-02-16T21:19:47.160Z,53.13
2018-02-16T21:22:14.665Z,48.33
2018-02-16T21:24:42.841Z,50.50
2018-02-16T21:27:10.338Z,63.10
2018-02-16T21:29:37.793Z,55.23
2018-02-16T21:32:05.615Z,57.47
2018-02-16T21:34:33.833Z,51.70
2018-02-16T21:37:01.350Z,53.67
2018-02-16T21:39:28.821Z,51.37
2018-02-16T21:41:56.384Z,54.20
2018-02-16T21:44:23.921Z,51.83
2018-02-16T21:46:51.423Z,59.10
2018-02-16T21:49:18.884Z,62.30
2018-02-16T21:51:46.343Z,48.70
2018-02-16T21:54:13.824Z,60.83
2018-02-16T21:56:41.393Z,55.87
2018-02-16T21:59:09.051Z,50.37
2018-02-16T22:01:36.607Z,51.37
2018-02-16T22:04:04.158Z,67.53
2018-02-16T22:06:31.591Z,44.83
2018-02-16T22:08:59.046Z,44.03
2018-02-16T22:11:26.476Z,43.60
2018-02-16T22:13:53.964Z,41.97
2018-02-16T22:16:21.410Z,43.73
2018-02-16T22:18:48.875Z,35.07
2018-02-16T22:21:16.309Z,34.67
2018-02-16T22:23:43.738Z,36.70
2018-02-16T22:26:11.231Z,36.43
2018-02-16T22:28:38.712Z,43.50
2018-02-16T22:31:06.159Z,35.53
2018-02-16T22:33:33.622Z,37.70
2018-02-16T22:36:01.106Z,44.03
2018-02-16T22:38:28.592Z,31.43
2018-02-16T22:40:56.048Z,35.83
2018-02-16T22:43:23.467Z,37.23
2018-02-16T22:45:51.065Z,39.07
2018-02-16T22:48:18.669Z,37.33
2018-02-16T22:50:46.101Z,34.07
2018-02-16T22:53:13.520Z,38.97
2018-02-16T22:55:40.981Z,37.60
2018-02-16T22:58:08.416Z,29.90
2018-02-16T23:00:35.864Z,28.23
2018-02-16T23:03:03.305Z,31.00
2018-02-16T23:05:30.754Z,25.90
2018-02-16T23:07:58.206Z,35.17
2018-02-16T23:10:25.641Z,39.60
2018-02-16T23:12:53.075Z,36.87
2018-02-16T23:15:20.532Z,30.83
2018-02-16T23:17:47.965Z,30.63
2018-02-16T23:20:15.391Z,30.77
2018-02-16T23:22:42.863Z,29.03
2018-02-16T23:25:10.255Z,33.10
2018-02-16T23:27:37.704Z,40.23
2018-02-16T23:30:05.153Z,26.57
2018-02-16T23:32:32.566Z,29.77
2018-02-16T23:34:59.993Z,35.03
2018-02-16T23:37:27.438Z,37.57
2018-02-16T23:39:54.875Z,31.43
2018-02-16T23:42:22.287Z,30.83
2018-02-16T23:44:49.700Z,35.60
2018-02-16T23:47:17.140Z,29.97
2018-02-16T23:49:44.553Z,28.17
2018-02-16T23:52:11.991Z,30.97
2018-02-16T23:54:39.429Z,32.47
2018-02-16T23:57:06.856Z,28.00
2018-02-16T23:59:34.288Z,24.80
